createdAt,value
2022-09-27T00:00:44.817Z,10.00
2022-09-27T00:03:12.315Z,10.10
2022-09-27T00:05:40.363Z,10.10
2022-09-27T00:08:07.156Z,10.10
2022-09-27T00:10:34.056Z,10.00
2022-09-27T00:13:00.939Z,10.00
2022-09-27T00:15:27.715Z,9.90
2022-09-27T00:17:55.191Z,9.80
2022-09-27T00:20:22.058Z,9.80
2022-09-27T00:22:49.724Z,9.80
2022-09-27T00:25:17.525Z,9.70
2022-09-27T00:27:44.731Z,9.70
2022-09-27T00:30:12.246Z,9.70
2022-09-27T00:32:38.989Z,9.60
2022-09-27T00:35:06.064Z,9.60
2022-09-27T00:37:33.134Z,9.50
2022-09-27T00:40:00.303Z,9.50
2022-09-27T00:42:27.130Z,9.50
2022-09-27T00:45:03.992Z,9.40
2022-09-27T00:47:40.824Z,9.40
2022-09-27T00:50:14.161Z,9.30
2022-09-27T00:52:52.674Z,9.30
2022-09-27T00:55:25.786Z,9.20
2022-09-27T00:57:53.276Z,9.20
2022-09-27T01:00:22.524Z,9.20
2022-09-27T01:02:51.749Z,9.20
2022-09-27T01:05:21.974Z,9.20
2022-09-27T01:07:48.968Z,9.20
2022-09-27T01:10:17.036Z,9.20
2022-09-27T01:13:22.887Z,9.20
2022-09-27T01:16:01.716Z,9.20
2022-09-27T01:18:37.361Z,9.20
2022-09-27T01:21:04.071Z,9.20
2022-09-27T01:23:39.713Z,9.20
2022-09-27T01:26:21.665Z,9.20
2022-09-27T01:29:04.139Z,9.20
2022-09-27T01:31:48.613Z,9.20
2022-09-27T01:34:54.600Z,9.20
2022-09-27T01:37:45.395Z,9.20
2022-09-27T01:40:24.547Z,9.20
2022-09-27T01:43:00.500Z,9.20
2022-09-27T01:45:42.800Z,9.20
2022-09-27T01:48:18.970Z,9.20
2022-09-27T01:51:18.108Z,9.20
2022-09-27T01:53:48.727Z,9.20
2022-09-27T01:56:21.592Z,9.10
2022-09-27T01:59:07.191Z,9.10
2022-09-27T02:01:38.508Z,9.10
2022-09-27T02:04:10.105Z,9.00
2022-09-27T02:06:42.984Z,9.00
2022-09-27T02:09:28.908Z,8.90
2022-09-27T02:12:00.892Z,8.90
2022-09-27T02:14:45.053Z,8.80
2022-09-27T02:17:34.808Z,8.80
2022-09-27T02:20:26.753Z,8.80
2022-09-27T02:23:08.876Z,8.80
2022-09-27T02:25:57.183Z,8.90
2022-09-27T02:28:42.956Z,8.90
2022-09-27T02:31:10.395Z,8.90
2022-09-27T02:33:59.459Z,8.90
2022-09-27T02:36:26.410Z,8.90
2022-09-27T02:38:53.223Z,9.00
2022-09-27T02:41:21.986Z,9.00
2022-09-27T02:43:54.532Z,9.00
2022-09-27T02:46:42.502Z,9.10
2022-09-27T02:49:42.045Z,9.10
2022-09-27T02:52:28.387Z,9.10
2022-09-27T02:55:12.996Z,9.10
2022-09-27T02:58:10.755Z,9.00
2022-09-27T03:01:02.363Z,9.00
2022-09-27T03:04:18.435Z,9.00
2022-09-27T03:06:47.300Z,9.00
2022-09-27T03:09:19.517Z,9.00
2022-09-27T03:11:46.607Z,9.00
2022-09-27T03:14:13.575Z,9.00
2022-09-27T03:16:40.601Z,8.90
2022-09-27T03:19:07.485Z,8.90
2022-09-27T03:21:34.941Z,8.90
2022-09-27T03:24:02.337Z,8.80
2022-09-27T03:26:29.322Z,8.80
2022-09-27T03:28:56.140Z,8.80
2022-09-27T03:31:23.043Z,8.80
2022-09-27T03:33:49.868Z,8.70
2022-09-27T03:36:16.704Z,8.70
2022-09-27T03:38:43.469Z,8.70
2022-09-27T03:41:10.199Z,8.70
2022-09-27T03:43:36.983Z,8.60
2022-09-27T03:46:03.819Z,8.60
2022-09-27T03:48:31.341Z,8.60
2022-09-27T03:50:58.364Z,8.50
2022-09-27T03:53:25.403Z,8.60
2022-09-27T03:55:52.295Z,8.50
2022-09-27T03:58:19.109Z,8.50
2022-09-27T04:00:46.860Z,8.50
2022-09-27T04:03:13.936Z,8.40
2022-09-27T04:05:41.058Z,8.50
2022-09-27T04:08:08.028Z,8.40
2022-09-27T04:10:34.898Z,8.40
2022-09-27T04:13:01.717Z,8.40
2022-09-27T04:15:28.700Z,8.30
2022-09-27T04:17:55.452Z,8.30
2022-09-27T04:20:22.285Z,8.30
2022-09-27T04:22:49.072Z,8.40
2022-09-27T04:25:15.878Z,8.30
2022-09-27T04:27:47.055Z,8.40
2022-09-27T04:30:14.873Z,8.40
2022-09-27T04:32:43.099Z,8.30
2022-09-27T04:35:29.492Z,8.40
2022-09-27T04:37:56.635Z,8.40
2022-09-27T04:40:23.746Z,8.40
2022-09-27T04:42:53.427Z,8.40
2022-09-27T04:45:21.386Z,8.40
2022-09-27T04:47:49.954Z,8.40
2022-09-27T04:50:20.328Z,8.40
2022-09-27T04:52:54.212Z,8.40
2022-09-27T04:55:22.105Z,8.40
2022-09-27T04:57:49.395Z,8.40
2022-09-27T05:00:17.230Z,8.40
2022-09-27T05:02:50.597Z,8.40
2022-09-27T05:05:17.511Z,8.40
2022-09-27T05:07:44.311Z,8.40
2022-09-27T05:10:11.290Z,8.40
2022-09-27T05:12:38.071Z,8.40
2022-09-27T05:15:05.641Z,8.30
2022-09-27T05:17:32.542Z,8.30
2022-09-27T05:19:59.749Z,8.30
2022-09-27T05:22:26.750Z,8.30
2022-09-27T05:24:53.545Z,8.30
2022-09-27T05:27:20.582Z,8.30
2022-09-27T05:29:48.216Z,8.30
2022-09-27T05:32:15.553Z,8.30
2022-09-27T05:34:42.816Z,8.30
2022-09-27T05:37:09.866Z,8.30
2022-09-27T05:39:36.694Z,8.40
2022-09-27T05:42:04.885Z,8.40
2022-09-27T05:44:31.905Z,8.40
2022-09-27T05:47:04.344Z,8.40
2022-09-27T05:49:34.521Z,8.40
2022-09-27T05:52:01.490Z,8.40
2022-09-27T05:54:29.642Z,8.40
2022-09-27T05:57:00.333Z,8.40
2022-09-27T05:59:28.171Z,8.50
2022-09-27T06:01:55.437Z,8.50
2022-09-27T06:04:22.328Z,8.50
2022-09-27T06:06:49.092Z,8.50
2022-09-27T06:09:17.203Z,8.50
2022-09-27T06:11:45.560Z,8.60
2022-09-27T06:14:15.629Z,8.60
2022-09-27T06:16:42.495Z,8.70
2022-09-27T06:19:09.419Z,8.70
2022-09-27T06:21:37.528Z,8.70
2022-09-27T06:24:04.606Z,8.70
2022-09-27T06:26:31.779Z,8.70
2022-09-27T06:28:58.558Z,8.80
2022-09-27T06:31:25.376Z,8.80
2022-09-27T06:33:52.207Z,8.80
2022-09-27T06:36:19.061Z,8.80
2022-09-27T06:38:48.188Z,8.80
2022-09-27T06:41:15.309Z,8.80
2022-09-27T06:43:42.564Z,8.80
2022-09-27T06:46:09.542Z,8.80
2022-09-27T06:48:39.849Z,8.80
2022-09-27T06:51:06.921Z,8.80
2022-09-27T06:53:33.759Z,8.80
2022-09-27T06:56:01.423Z,8.90
2022-09-27T06:58:49.693Z,9.00
2022-09-27T07:01:17.640Z,9.10
2022-09-27T07:03:49.160Z,9.10
2022-09-27T07:06:22.491Z,9.10
2022-09-27T07:08:53.442Z,9.20
2022-09-27T07:11:23.614Z,9.20
2022-09-27T07:13:51.877Z,9.20
2022-09-27T07:16:19.228Z,9.30
2022-09-27T07:18:48.648Z,9.30
2022-09-27T07:21:16.336Z,9.30
2022-09-27T07:23:43.103Z,9.40
2022-09-27T07:26:10.407Z,9.40
2022-09-27T07:28:37.381Z,9.50
2022-09-27T07:31:04.460Z,9.70
2022-09-27T07:33:32.114Z,10.00
2022-09-27T07:35:59.239Z,10.40
2022-09-27T07:38:26.163Z,10.60
2022-09-27T07:40:53.138Z,10.80
2022-09-27T07:43:20.690Z,10.90
2022-09-27T07:45:47.504Z,10.90
2022-09-27T07:48:16.131Z,10.90
2022-09-27T07:50:43.581Z,10.90
2022-09-27T07:53:13.313Z,10.90
2022-09-27T07:55:40.874Z,10.90
2022-09-27T07:58:10.362Z,11.00
2022-09-27T08:00:38.612Z,11.10
2022-09-27T08:03:17.100Z,11.30
2022-09-27T08:05:47.175Z,11.40
2022-09-27T08:08:15.839Z,11.50
2022-09-27T08:10:44.397Z,11.50
2022-09-27T08:13:11.831Z,11.40
2022-09-27T08:15:41.373Z,11.30
2022-09-27T08:18:11.268Z,11.10
2022-09-27T08:20:38.162Z,11.10
2022-09-27T08:23:05.017Z,11.00
2022-09-27T08:25:32.035Z,11.00
2022-09-27T08:28:00.699Z,11.00
2022-09-27T08:30:31.166Z,11.00
2022-09-27T08:32:59.775Z,10.90
2022-09-27T08:35:28.004Z,11.00
2022-09-27T08:38:00.029Z,11.00
2022-09-27T08:40:35.794Z,11.10
2022-09-27T08:43:38.310Z,11.10
2022-09-27T08:46:19.396Z,11.00
2022-09-27T08:48:51.646Z,11.00
2022-09-27T08:51:24.518Z,10.90
2022-09-27T08:54:02.195Z,11.00
2022-09-27T08:56:29.929Z,11.20
2022-09-27T08:59:15.055Z,11.50
2022-09-27T09:01:42.495Z,12.00
2022-09-27T09:04:12.131Z,12.80
2022-09-27T09:07:01.158Z,13.30
2022-09-27T09:10:03.054Z,13.60
2022-09-27T09:12:48.027Z,13.70
2022-09-27T09:15:54.362Z,13.80
2022-09-27T09:18:34.725Z,13.90
2022-09-27T09:21:25.674Z,13.80
2022-09-27T09:24:01.388Z,13.80
2022-09-27T09:27:11.696Z,13.80
2022-09-27T09:30:03.341Z,14.40
2022-09-27T09:32:32.874Z,15.50
2022-09-27T09:35:10.179Z,16.60
2022-09-27T09:37:58.571Z,17.30
2022-09-27T09:40:35.616Z,17.70
2022-09-27T09:43:18.425Z,17.80
2022-09-27T09:45:54.722Z,18.10
2022-09-27T09:48:39.404Z,18.80
2022-09-27T09:51:07.751Z,20.00
2022-09-27T09:53:58.787Z,20.60
2022-09-27T09:56:33.071Z,20.90
2022-09-27T09:59:02.616Z,21.20
2022-09-27T10:01:41.868Z,21.20
2022-09-27T10:04:20.288Z,20.80
2022-09-27T10:06:48.439Z,20.20
2022-09-27T10:09:17.757Z,19.70
2022-09-27T10:11:46.461Z,18.90
2022-09-27T10:14:18.093Z,18.00
2022-09-27T10:16:52.733Z,17.00
2022-09-27T10:19:28.450Z,16.20
2022-09-27T10:22:03.168Z,15.40
2022-09-27T10:24:30.917Z,14.90
2022-09-27T10:27:00.564Z,14.40
2022-09-27T10:29:37.361Z,14.10
2022-09-27T10:32:18.450Z,13.90
2022-09-27T10:34:45.217Z,13.70
2022-09-27T10:37:21.855Z,13.50
2022-09-27T10:39:51.744Z,13.30
2022-09-27T10:42:37.831Z,13.30
2022-09-27T10:45:27.412Z,13.50
2022-09-27T10:47:54.498Z,14.00
2022-09-27T10:50:48.871Z,15.10
2022-09-27T10:53:18.538Z,17.10
2022-09-27T10:55:50.049Z,19.00
2022-09-27T10:58:33.373Z,20.50
2022-09-27T11:01:07.204Z,21.30
2022-09-27T11:03:39.309Z,21.90
2022-09-27T11:06:24.402Z,22.30
2022-09-27T11:08:52.968Z,22.30
2022-09-27T11:11:23.362Z,22.70
2022-09-27T11:14:08.045Z,23.60
2022-09-27T11:17:14.517Z,24.50
2022-09-27T11:20:15.399Z,25.10
2022-09-27T11:23:03.683Z,24.80
2022-09-27T11:26:04.938Z,24.30
2022-09-27T11:28:34.561Z,23.50
2022-09-27T11:31:26.286Z,23.20
2022-09-27T11:34:10.072Z,23.00
2022-09-27T11:37:09.807Z,22.70
2022-09-27T11:39:51.274Z,22.20
2022-09-27T11:42:40.973Z,21.40
2022-09-27T11:48:42.816Z,19.70
2022-09-27T11:51:24.923Z,18.80
2022-09-27T11:54:32.417Z,18.00
2022-09-27T11:57:09.217Z,17.10
2022-09-27T12:00:13.967Z,16.30
2022-09-27T12:03:22.727Z,15.70
2022-09-27T12:06:06.324Z,15.10
2022-09-27T12:09:02.937Z,14.60
2022-09-27T12:11:47.359Z,14.40
2022-09-27T12:14:34.329Z,15.00
2022-09-27T12:17:05.420Z,15.50
2022-09-27T12:19:39.908Z,15.40
2022-09-27T12:22:08.120Z,15.10
2022-09-27T12:24:35.025Z,14.60
2022-09-27T12:27:14.234Z,14.20
2022-09-27T12:29:43.560Z,14.00
2022-09-27T12:32:27.698Z,14.20
2022-09-27T12:35:14.065Z,15.00
2022-09-27T12:37:51.724Z,15.90
2022-09-27T12:40:29.233Z,16.70
2022-09-27T12:43:16.537Z,17.20
2022-09-27T12:46:26.786Z,17.80
2022-09-27T12:49:10.187Z,18.80
2022-09-27T12:51:44.186Z,20.00
2022-09-27T12:54:13.764Z,20.80
2022-09-27T12:56:40.955Z,20.90
2022-09-27T12:59:40.580Z,20.60
2022-09-27T13:02:26.192Z,19.80
2022-09-27T13:04:53.077Z,19.00
2022-09-27T13:07:49.933Z,18.30
2022-09-27T13:10:52.907Z,18.00
2022-09-27T13:13:22.516Z,17.90
2022-09-27T13:15:50.291Z,18.20
2022-09-27T13:18:31.826Z,18.40
2022-09-27T13:20:58.782Z,18.60
2022-09-27T13:23:29.503Z,18.40
2022-09-27T13:26:00.948Z,18.10
2022-09-27T13:28:31.806Z,18.00
2022-09-27T13:31:12.945Z,17.70
2022-09-27T13:33:46.177Z,17.20
2022-09-27T13:36:26.119Z,16.70
2022-09-27T13:39:02.037Z,16.30
2022-09-27T13:41:50.490Z,16.20
2022-09-27T13:44:29.492Z,16.20
2022-09-27T13:47:24.179Z,16.20
2022-09-27T13:49:55.716Z,16.10
2022-09-27T13:52:29.440Z,15.80
2022-09-27T13:54:58.428Z,15.60
2022-09-27T13:57:43.950Z,15.40
2022-09-27T14:00:14.880Z,15.10
2022-09-27T14:03:23.606Z,14.80
2022-09-27T14:06:08.397Z,14.60
2022-09-27T14:08:49.040Z,14.40
2022-09-27T14:11:26.573Z,14.30
2022-09-27T14:13:54.546Z,14.20
2022-09-27T14:16:22.074Z,14.00
2022-09-27T14:18:57.734Z,14.00
2022-09-27T14:21:32.278Z,14.00
2022-09-27T14:24:17.868Z,13.90
2022-09-27T14:26:45.052Z,13.80
2022-09-27T14:29:21.288Z,13.70
2022-09-27T14:32:03.307Z,13.60
2022-09-27T14:34:30.129Z,13.60
2022-09-27T14:37:15.503Z,13.50
2022-09-27T14:39:43.750Z,13.50
2022-09-27T14:42:23.108Z,13.50
2022-09-27T14:44:51.276Z,13.50
2022-09-27T14:47:24.796Z,13.40
2022-09-27T14:49:51.604Z,13.40
2022-09-27T14:52:24.357Z,13.30
2022-09-27T14:55:21.946Z,13.20
2022-09-27T14:57:57.721Z,13.20
2022-09-27T15:00:33.956Z,13.10
2022-09-27T15:03:05.036Z,13.00
2022-09-27T15:05:33.945Z,13.00
2022-09-27T15:08:05.747Z,12.90
2022-09-27T15:10:35.522Z,12.90
2022-09-27T15:13:04.998Z,12.80
2022-09-27T15:15:35.707Z,12.70
2022-09-27T15:18:03.781Z,12.60
2022-09-27T15:20:35.455Z,12.40
2022-09-27T15:23:05.960Z,12.10
2022-09-27T15:25:44.168Z,11.80
2022-09-27T15:28:10.922Z,11.60
2022-09-27T15:30:40.513Z,11.30
2022-09-27T15:33:20.084Z,11.10
2022-09-27T15:35:56.177Z,11.00
2022-09-27T15:38:32.712Z,10.90
2022-09-27T15:41:05.696Z,10.90
2022-09-27T15:43:51.220Z,10.90
2022-09-27T15:46:36.314Z,10.90
2022-09-27T15:49:18.645Z,10.90
2022-09-27T15:52:05.272Z,11.00
2022-09-27T15:54:35.724Z,11.10
2022-09-27T15:57:05.354Z,11.10
2022-09-27T15:59:36.438Z,11.10
2022-09-27T16:02:18.042Z,11.10
2022-09-27T16:04:46.106Z,11.10
2022-09-27T16:07:15.008Z,11.10
2022-09-27T16:09:43.569Z,11.10
2022-09-27T16:12:10.383Z,11.00
2022-09-27T16:14:37.170Z,11.00
2022-09-27T16:17:04.181Z,10.90
2022-09-27T16:19:31.136Z,10.80
2022-09-27T16:21:58.030Z,10.90
2022-09-27T16:24:25.627Z,10.80
2022-09-27T16:26:52.423Z,10.80
2022-09-27T16:29:19.264Z,10.80
2022-09-27T16:31:46.418Z,10.80
2022-09-27T16:34:16.450Z,10.80
2022-09-27T16:36:43.419Z,10.80
2022-09-27T16:39:15.488Z,10.70
2022-09-27T16:41:43.505Z,10.70
2022-09-27T16:44:12.924Z,10.70
2022-09-27T16:46:46.400Z,10.60
2022-09-27T16:49:31.931Z,10.50
2022-09-27T16:52:02.193Z,10.50
2022-09-27T16:54:30.040Z,10.40
2022-09-27T16:56:58.456Z,10.40
2022-09-27T16:59:25.452Z,10.30
2022-09-27T17:01:53.787Z,10.30
2022-09-27T17:04:20.817Z,10.30
2022-09-27T17:06:47.957Z,10.20
2022-09-27T17:09:15.039Z,10.10
2022-09-27T17:11:41.840Z,10.10
2022-09-27T17:14:14.177Z,10.00
2022-09-27T17:16:41.000Z,10.00
2022-09-27T17:19:09.138Z,9.90
2022-09-27T17:21:40.653Z,9.80
2022-09-27T17:24:07.631Z,9.80
2022-09-27T17:26:34.593Z,9.80
2022-09-27T17:29:01.788Z,9.80
2022-09-27T17:31:31.441Z,9.70
2022-09-27T17:33:59.132Z,9.70
2022-09-27T17:36:32.753Z,9.70
2022-09-27T17:38:59.738Z,9.70
2022-09-27T17:41:28.077Z,9.80
2022-09-27T17:44:00.214Z,9.70
2022-09-27T17:46:33.813Z,9.70
2022-09-27T17:49:20.037Z,9.70
2022-09-27T17:51:49.157Z,9.70
2022-09-27T17:54:18.642Z,9.70
2022-09-27T17:56:46.678Z,9.70
2022-09-27T17:59:16.033Z,9.70
2022-09-27T18:01:47.825Z,9.60
2022-09-27T18:04:17.112Z,9.60
2022-09-27T18:06:46.291Z,9.60
2022-09-27T18:09:15.086Z,9.50
2022-09-27T18:11:42.834Z,9.50
2022-09-27T18:14:10.682Z,9.40
2022-09-27T18:16:40.978Z,9.40
2022-09-27T18:19:10.577Z,9.40
2022-09-27T18:21:37.474Z,9.40
2022-09-27T18:24:06.221Z,9.30
2022-09-27T18:26:36.617Z,9.30
2022-09-27T18:29:07.033Z,9.30
2022-09-27T18:31:34.249Z,9.30
2022-09-27T18:34:02.940Z,9.30
2022-09-27T18:36:29.871Z,9.30
2022-09-27T18:39:01.965Z,9.30
2022-09-27T18:41:31.395Z,9.30
2022-09-27T18:44:00.946Z,9.30
2022-09-27T18:46:35.660Z,9.20
2022-09-27T18:49:05.143Z,9.20
2022-09-27T18:51:32.973Z,9.20
2022-09-27T18:54:01.030Z,9.10
2022-09-27T18:56:28.765Z,9.10
2022-09-27T18:58:55.947Z,9.00
2022-09-27T19:01:23.656Z,8.90
2022-09-27T19:03:50.644Z,8.90
2022-09-27T19:06:22.706Z,8.90
2022-09-27T19:08:58.724Z,8.90
2022-09-27T19:11:27.077Z,8.90
2022-09-27T19:13:56.810Z,8.90
2022-09-27T19:16:24.854Z,8.80
2022-09-27T19:18:52.236Z,8.90
2022-09-27T19:21:21.786Z,8.90
2022-09-27T19:23:50.007Z,8.80
2022-09-27T19:26:19.411Z,8.80
2022-09-27T19:28:47.061Z,8.70
2022-09-27T19:31:26.129Z,8.70
2022-09-27T19:33:59.006Z,8.60
2022-09-27T19:36:27.358Z,8.60
2022-09-27T19:38:56.282Z,8.60
2022-09-27T19:41:23.024Z,8.50
2022-09-27T19:43:53.450Z,8.50
2022-09-27T19:46:21.676Z,8.50
2022-09-27T19:48:50.016Z,8.40
2022-09-27T19:51:22.046Z,8.40
2022-09-27T19:53:49.568Z,8.30
2022-09-27T19:56:16.980Z,8.30
2022-09-27T19:58:44.292Z,8.30
2022-09-27T20:01:19.246Z,8.30
2022-09-27T20:03:47.248Z,8.30
2022-09-27T20:06:16.397Z,8.40
2022-09-27T20:08:44.268Z,8.40
2022-09-27T20:11:13.334Z,8.40
2022-09-27T20:13:41.189Z,8.50
2022-09-27T20:16:14.086Z,8.50
2022-09-27T20:18:48.821Z,8.50
2022-09-27T20:21:17.244Z,8.50
2022-09-27T20:23:44.283Z,8.50
2022-09-27T20:26:13.579Z,8.50
2022-09-27T20:28:48.612Z,8.40
2022-09-27T20:31:18.181Z,8.40
2022-09-27T20:33:46.878Z,8.40
2022-09-27T20:36:20.443Z,8.30
2022-09-27T20:38:49.617Z,8.30
2022-09-27T20:41:18.357Z,8.30
2022-09-27T20:43:46.539Z,8.30
2022-09-27T20:46:15.684Z,8.30
2022-09-27T20:48:43.419Z,8.20
2022-09-27T20:51:14.237Z,8.30
2022-09-27T20:53:42.576Z,8.20
2022-09-27T20:56:37.082Z,8.20
2022-09-27T20:59:15.179Z,8.20
2022-09-27T21:01:44.867Z,8.20
2022-09-27T21:04:14.503Z,8.20
2022-09-27T21:06:41.936Z,8.10
2022-09-27T21:09:09.575Z,8.10
2022-09-27T21:11:36.820Z,8.00
2022-09-27T21:14:04.161Z,8.00
2022-09-27T21:16:34.932Z,8.00
2022-09-27T21:19:02.281Z,8.00
2022-09-27T21:21:29.551Z,8.00
2022-09-27T21:23:59.152Z,8.00
2022-09-27T21:26:29.073Z,8.00
2022-09-27T21:28:58.411Z,8.00
2022-09-27T21:31:30.104Z,8.00
2022-09-27T21:33:59.381Z,8.00
2022-09-27T21:36:29.005Z,8.00
2022-09-27T21:38:56.450Z,8.00
2022-09-27T21:41:24.125Z,7.90
2022-09-27T21:43:51.382Z,7.90
2022-09-27T21:46:23.739Z,7.80
2022-09-27T21:48:52.741Z,7.80
2022-09-27T21:51:31.165Z,7.80
2022-09-27T21:54:02.623Z,7.80
2022-09-27T21:56:32.204Z,7.70
2022-09-27T21:58:59.355Z,7.70
2022-09-27T22:01:29.677Z,7.60
2022-09-27T22:03:59.951Z,7.60
2022-09-27T22:06:29.266Z,7.60
2022-09-27T22:08:57.359Z,7.50
2022-09-27T22:11:36.714Z,7.50
2022-09-27T22:14:06.731Z,7.50
2022-09-27T22:16:33.808Z,7.50
2022-09-27T22:19:00.659Z,7.50
2022-09-27T22:21:29.794Z,7.50
2022-09-27T22:24:06.700Z,7.50
2022-09-27T22:26:37.397Z,7.50
2022-09-27T22:29:04.873Z,7.50
2022-09-27T22:31:31.871Z,7.50
2022-09-27T22:34:04.699Z,7.60
2022-09-27T22:36:33.542Z,7.60
2022-09-27T22:39:00.836Z,7.60
2022-09-27T22:41:29.321Z,7.70
2022-09-27T22:43:56.218Z,7.70
2022-09-27T22:46:23.073Z,7.70
2022-09-27T22:48:50.209Z,7.70
2022-09-27T22:51:17.905Z,7.70
2022-09-27T22:53:45.166Z,7.70
2022-09-27T22:56:18.206Z,7.70
2022-09-27T22:58:47.320Z,7.80
2022-09-27T23:01:20.568Z,7.80
2022-09-27T23:03:49.261Z,7.80
2022-09-27T23:06:17.612Z,7.80
2022-09-27T23:08:44.480Z,7.80
2022-09-27T23:11:13.925Z,7.80
2022-09-27T23:13:42.294Z,7.80
2022-09-27T23:16:13.125Z,7.80
2022-09-27T23:18:39.985Z,7.80
2022-09-27T23:21:09.388Z,7.80
2022-09-27T23:23:38.633Z,7.80
2022-09-27T23:26:08.455Z,7.80
2022-09-27T23:28:35.407Z,7.70
2022-09-27T23:31:14.023Z,7.80
2022-09-27T23:33:47.430Z,7.70
2022-09-27T23:36:17.415Z,7.70
2022-09-27T23:38:46.355Z,7.70
2022-09-27T23:41:15.137Z,7.70
2022-09-27T23:43:42.242Z,7.70
2022-09-27T23:46:09.887Z,7.60
2022-09-27T23:48:37.300Z,7.60
2022-09-27T23:51:07.878Z,7.60
2022-09-27T23:53:34.808Z,7.60
2022-09-27T23:56:06.311Z,7.60
2022-09-27T23:58:38.199Z,7.60
